ACA204 CYYC-CYVR
Flight info
| Callsign | ACA204 |
|---|---|
| Flight time | N/A |
| Altitude | 34000 |
| Route | BOTAG Q894 BINVO DCT ALSED DCT AMBRO DCT BOOTH CANUC5 |
| Aircraft | A20N/M-SDE2E3FGHIRWXY/LB1 |
Departure
| Time | 2026-05-04 05:18 |
|---|---|
| Airport | Calgary International Airport (CYYC) |
Arrival
| Time | N/A |
|---|---|
| Airport | Vancouver International Airport (CYVR) |
| Time | Latitude | Longitude | Altitude | Speed | Heading |
|---|---|---|---|---|---|
| 2026-05-04 04:18 | 51.13069 | -114.03657 | 3561 ft | 0 kts | 297° |
| 2026-05-04 04:33 | 51.13068 | -114.03655 | 3515 ft | 0 kts | 297° |
| 2026-05-04 04:33 | 51.13062 | -114.03638 | 3559 ft | 0 kts | 332° |
| 2026-05-04 04:33 | 51.13046 | -114.03635 | 3561 ft | 1 kts | 20° |
| 2026-05-04 04:34 | 51.13029 | -114.03647 | 3559 ft | 1 kts | 31° |
| 2026-05-04 04:34 | 51.13015 | -114.03660 | 3559 ft | 0 kts | 32° |
| 2026-05-04 04:34 | 51.13014 | -114.03662 | 3560 ft | 0 kts | 32° |
| 2026-05-04 04:37 | 51.13019 | -114.03656 | 3558 ft | 4 kts | 32° |
| 2026-05-04 04:37 | 51.13042 | -114.03623 | 3560 ft | 4 kts | 68° |
| 2026-05-04 04:38 | 51.13038 | -114.03587 | 3561 ft | 3 kts | 107° |
| 2026-05-04 04:38 | 51.13031 | -114.03560 | 3561 ft | 2 kts | 117° |
| 2026-05-04 04:38 | 51.13025 | -114.03540 | 3561 ft | 2 kts | 117° |
| 2026-05-04 04:38 | 51.13019 | -114.03524 | 3561 ft | 1 kts | 118° |
| 2026-05-04 04:39 | 51.13016 | -114.03514 | 3561 ft | 1 kts | 120° |
| 2026-05-04 04:39 | 51.13014 | -114.03509 | 3561 ft | 0 kts | 120° |
| 2026-05-04 04:39 | 51.13001 | -114.03473 | 3561 ft | 8 kts | 121° |
| 2026-05-04 04:39 | 51.12972 | -114.03402 | 3561 ft | 7 kts | 124° |
| 2026-05-04 04:40 | 51.12946 | -114.03340 | 3561 ft | 6 kts | 124° |
| 2026-05-04 04:40 | 51.12925 | -114.03285 | 3561 ft | 5 kts | 127° |
| 2026-05-04 04:40 | 51.12899 | -114.03267 | 3561 ft | 4 kts | 158° |
| 2026-05-04 04:40 | 51.12874 | -114.03249 | 3561 ft | 4 kts | 150° |
| 2026-05-04 04:41 | 51.12858 | -114.03222 | 3559 ft | 3 kts | 127° |
| 2026-05-04 04:41 | 51.12847 | -114.03199 | 3561 ft | 2 kts | 127° |
| 2026-05-04 04:41 | 51.12840 | -114.03184 | 3559 ft | 1 kts | 127° |
| 2026-05-04 04:41 | 51.12836 | -114.03180 | 3559 ft | 1 kts | 139° |
| 2026-05-04 04:42 | 51.12834 | -114.03177 | 3559 ft | 0 kts | 139° |
| 2026-05-04 04:42 | 51.12833 | -114.03176 | 3559 ft | 0 kts | 139° |
| 2026-05-04 04:47 | 51.12778 | -114.03011 | 3562 ft | 8 kts | 122° |
| 2026-05-04 04:47 | 51.12753 | -114.02943 | 3558 ft | 7 kts | 120° |
| 2026-05-04 04:47 | 51.12732 | -114.02884 | 3563 ft | 6 kts | 120° |
| 2026-05-04 04:47 | 51.12716 | -114.02833 | 3563 ft | 5 kts | 111° |
| 2026-05-04 04:48 | 51.12709 | -114.02790 | 3562 ft | 4 kts | 99° |
| 2026-05-04 04:49 | 51.12706 | -114.02723 | 3564 ft | 0 kts | 90° |
| 2026-05-04 04:51 | 51.12706 | -114.02714 | 3564 ft | 4 kts | 90° |
| 2026-05-04 04:51 | 51.12707 | -114.02659 | 3564 ft | 5 kts | 89° |
| 2026-05-04 04:51 | 51.12707 | -114.02612 | 3564 ft | 4 kts | 89° |
| 2026-05-04 04:52 | 51.12707 | -114.02573 | 3565 ft | 3 kts | 89° |
| 2026-05-04 04:52 | 51.12708 | -114.02541 | 3565 ft | 3 kts | 89° |
| 2026-05-04 04:52 | 51.12708 | -114.02516 | 3565 ft | 2 kts | 89° |
| 2026-05-04 04:52 | 51.12708 | -114.02496 | 3565 ft | 2 kts | 88° |
| 2026-05-04 04:53 | 51.12710 | -114.02480 | 3562 ft | 1 kts | 75° |
| 2026-05-04 04:53 | 51.12713 | -114.02468 | 3562 ft | 1 kts | 69° |
| 2026-05-04 04:53 | 51.12716 | -114.02458 | 3565 ft | 1 kts | 66° |
| 2026-05-04 04:53 | 51.12728 | -114.02436 | 3562 ft | 4 kts | 38° |
| 2026-05-04 04:54 | 51.12754 | -114.02421 | 3564 ft | 4 kts | 12° |
| 2026-05-04 04:54 | 51.12778 | -114.02418 | 3565 ft | 3 kts | 2° |
| 2026-05-04 04:54 | 51.12800 | -114.02417 | 3565 ft | 3 kts | 2° |
| 2026-05-04 04:54 | 51.12821 | -114.02416 | 3563 ft | 3 kts | 2° |
| 2026-05-04 04:55 | 51.12841 | -114.02415 | 3566 ft | 3 kts | 2° |
| 2026-05-04 04:55 | 51.12858 | -114.02414 | 3566 ft | 2 kts | 1° |
| 2026-05-04 04:55 | 51.12872 | -114.02414 | 3566 ft | 2 kts | 0° |
| 2026-05-04 04:55 | 51.12884 | -114.02414 | 3566 ft | 1 kts | 0° |
| 2026-05-04 04:56 | 51.12893 | -114.02414 | 3563 ft | 1 kts | 0° |
| 2026-05-04 04:56 | 51.12908 | -114.02414 | 3566 ft | 3 kts | 0° |
| 2026-05-04 04:56 | 51.12938 | -114.02414 | 3566 ft | 5 kts | 0° |
| 2026-05-04 04:56 | 51.12977 | -114.02417 | 3567 ft | 6 kts | 353° |
| 2026-05-04 04:57 | 51.13026 | -114.02427 | 3559 ft | 8 kts | 353° |
| 2026-05-04 04:57 | 51.13084 | -114.02438 | 3565 ft | 8 kts | 353° |
| 2026-05-04 04:57 | 51.13130 | -114.02446 | 3564 ft | 7 kts | 353° |
| 2026-05-04 04:57 | 51.13181 | -114.02460 | 3564 ft | 9 kts | 351° |
| 2026-05-04 04:58 | 51.13247 | -114.02463 | 3567 ft | 10 kts | 360° |
| 2026-05-04 04:58 | 51.13307 | -114.02442 | 3563 ft | 5 kts | 76° |
| 2026-05-04 04:58 | 51.13302 | -114.02435 | 3562 ft | 0 kts | 146° |
| 2026-05-04 04:59 | 51.13297 | -114.02438 | 3567 ft | 0 kts | 200° |
| 2026-05-04 05:00 | 51.13294 | -114.02440 | 3567 ft | 4 kts | 200° |
| 2026-05-04 05:00 | 51.13245 | -114.02461 | 3567 ft | 8 kts | 186° |
| 2026-05-04 05:00 | 51.13144 | -114.02448 | 3562 ft | 7 kts | 153° |
| 2026-05-04 05:01 | 51.13102 | -114.02417 | 3563 ft | 6 kts | 154° |
| 2026-05-04 05:01 | 51.13074 | -114.02368 | 3559 ft | 6 kts | 113° |
| 2026-05-04 05:01 | 51.13068 | -114.02307 | 3565 ft | 5 kts | 91° |
| 2026-05-04 05:01 | 51.13068 | -114.02250 | 3560 ft | 5 kts | 89° |
| 2026-05-04 05:02 | 51.13069 | -114.02200 | 3564 ft | 4 kts | 89° |
| 2026-05-04 05:02 | 51.13069 | -114.02166 | 3568 ft | 3 kts | 89° |
| 2026-05-04 05:02 | 51.13069 | -114.02144 | 3561 ft | 1 kts | 89° |
| 2026-05-04 05:02 | 51.13069 | -114.02135 | 3561 ft | 0 kts | 89° |
| 2026-05-04 05:03 | 51.13069 | -114.02134 | 3561 ft | 1 kts | 89° |
| 2026-05-04 05:03 | 51.13073 | -114.02107 | 3561 ft | 3 kts | 60° |
| 2026-05-04 05:04 | 51.13074 | -114.01832 | 3563 ft | 14 kts | 136° |
| 2026-05-04 05:04 | 51.12961 | -114.01795 | 3561 ft | 20 kts | 182° |
| 2026-05-04 05:04 | 51.12835 | -114.01795 | 3566 ft | 17 kts | 177° |
| 2026-05-04 05:06 | 51.12134 | -114.01798 | 3562 ft | 13 kts | 180° |
| 2026-05-04 05:06 | 51.12044 | -114.01798 | 3562 ft | 12 kts | 180° |
| 2026-05-04 05:06 | 51.11959 | -114.01800 | 3562 ft | 12 kts | 181° |
| 2026-05-04 05:07 | 51.11870 | -114.01797 | 3560 ft | 13 kts | 174° |
| 2026-05-04 05:07 | 51.11863 | -114.01738 | 3560 ft | 4 kts | 19° |
| 2026-05-04 05:07 | 51.11875 | -114.01732 | 3560 ft | 0 kts | 17° |
| 2026-05-04 05:10 | 51.11886 | -114.01726 | 3559 ft | 3 kts | 18° |
| 2026-05-04 05:10 | 51.11894 | -114.01722 | 3560 ft | 3 kts | 18° |
| 2026-05-04 05:10 | 51.12083 | -114.01634 | 3561 ft | 40 kts | 21° |
| 2026-05-04 05:10 | 51.12158 | -114.01568 | 3561 ft | 5 kts | 77° |
| 2026-05-04 05:11 | 51.12138 | -114.01446 | 3559 ft | 14 kts | 123° |
| 2026-05-04 05:11 | 51.12090 | -114.01318 | 3561 ft | 14 kts | 120° |
| 2026-05-04 05:11 | 51.12043 | -114.01186 | 3560 ft | 14 kts | 119° |
| 2026-05-04 05:11 | 51.11996 | -114.01058 | 3560 ft | 13 kts | 122° |
| 2026-05-04 05:12 | 51.11949 | -114.00928 | 3559 ft | 13 kts | 120° |
| 2026-05-04 05:12 | 51.11903 | -114.00801 | 3554 ft | 13 kts | 121° |
| 2026-05-04 05:12 | 51.11857 | -114.00675 | 3575 ft | 13 kts | 121° |
| 2026-05-04 05:12 | 51.11826 | -114.00545 | 3559 ft | 12 kts | 98° |
| 2026-05-04 05:13 | 51.11825 | -114.00416 | 3560 ft | 11 kts | 89° |
| 2026-05-04 05:13 | 51.11827 | -114.00309 | 3561 ft | 9 kts | 88° |
| 2026-05-04 05:13 | 51.11826 | -114.00230 | 3563 ft | 6 kts | 90° |
| 2026-05-04 05:13 | 51.11826 | -114.00183 | 3564 ft | 3 kts | 90° |
| 2026-05-04 05:14 | 51.11826 | -114.00148 | 3565 ft | 2 kts | 90° |
| 2026-05-04 05:14 | 51.11825 | -114.00071 | 3567 ft | 19 kts | 89° |
| 2026-05-04 05:14 | 51.11825 | -113.99949 | 3570 ft | 7 kts | 90° |
| 2026-05-04 05:14 | 51.11825 | -113.99899 | 3572 ft | 5 kts | 90° |
| 2026-05-04 05:15 | 51.11826 | -113.99745 | 3577 ft | 22 kts | 89° |
| 2026-05-04 05:15 | 51.11825 | -113.99555 | 3583 ft | 12 kts | 90° |
| 2026-05-04 05:15 | 51.11799 | -113.99462 | 3585 ft | 8 kts | 149° |
| 2026-05-04 05:15 | 51.11746 | -113.99448 | 3577 ft | 8 kts | 179° |
| 2026-05-04 05:16 | 51.11692 | -113.99446 | 3574 ft | 8 kts | 178° |
| 2026-05-04 05:16 | 51.11636 | -113.99446 | 3575 ft | 8 kts | 180° |
| 2026-05-04 05:16 | 51.11578 | -113.99444 | 3580 ft | 8 kts | 173° |
| 2026-05-04 05:16 | 51.11540 | -113.99395 | 3576 ft | 6 kts | 107° |
| 2026-05-04 05:17 | 51.11536 | -113.99345 | 3581 ft | 3 kts | 95° |
| 2026-05-04 05:17 | 51.11535 | -113.99240 | 3587 ft | 16 kts | 91° |
| 2026-05-04 05:17 | 51.11543 | -113.99085 | 3585 ft | 13 kts | 62° |
| 2026-05-04 05:17 | 51.11656 | -113.99035 | 3578 ft | 36 kts | 1° |
| 2026-05-04 05:18 | 51.12147 | -113.99038 | 3580 ft | 110 kts | 0° |
| 2026-05-04 05:18 | 51.13167 | -113.99043 | 3629 ft | 175 kts | 360° |
| 2026-05-04 05:18 | 51.14470 | -113.99029 | 4169 ft | 194 kts | 0° |
| 2026-05-04 05:18 | 51.15867 | -113.99091 | 4865 ft | 210 kts | 350° |
| 2026-05-04 05:19 | 51.17112 | -114.00171 | 5611 ft | 213 kts | 310° |
| 2026-05-04 05:19 | 51.17618 | -114.02398 | 6279 ft | 223 kts | 274° |
| 2026-05-04 05:19 | 51.17405 | -114.04933 | 6865 ft | 240 kts | 257° |
| 2026-05-04 05:19 | 51.16829 | -114.07514 | 7608 ft | 248 kts | 251° |
| 2026-05-04 05:20 | 51.16165 | -114.10015 | 8424 ft | 251 kts | 251° |
| 2026-05-04 05:20 | 51.15499 | -114.12624 | 9228 ft | 255 kts | 253° |
| 2026-05-04 05:20 | 51.14887 | -114.15312 | 10038 ft | 257 kts | 255° |
| 2026-05-04 05:20 | 51.14346 | -114.18006 | 10798 ft | 259 kts | 257° |
| 2026-05-04 05:21 | 51.13838 | -114.20792 | 11586 ft | 260 kts | 258° |
| 2026-05-04 05:21 | 51.13367 | -114.23540 | 12382 ft | 261 kts | 259° |
| 2026-05-04 05:21 | 51.12904 | -114.26319 | 13139 ft | 264 kts | 259° |
| 2026-05-04 05:21 | 51.12439 | -114.29132 | 13938 ft | 265 kts | 260° |
| 2026-05-04 05:22 | 51.11962 | -114.32006 | 14598 ft | 269 kts | 260° |
| 2026-05-04 05:22 | 51.11476 | -114.34913 | 15259 ft | 273 kts | 260° |
| 2026-05-04 05:22 | 51.10980 | -114.37851 | 15882 ft | 277 kts | 260° |
| 2026-05-04 05:22 | 51.10483 | -114.40782 | 16504 ft | 280 kts | 260° |
| 2026-05-04 05:23 | 51.09968 | -114.43799 | 17131 ft | 284 kts | 260° |
| 2026-05-04 05:23 | 51.09446 | -114.46851 | 17757 ft | 287 kts | 261° |
| 2026-05-04 05:23 | 51.08917 | -114.49933 | 18397 ft | 290 kts | 261° |
| 2026-05-04 05:23 | 51.08384 | -114.53035 | 18931 ft | 294 kts | 261° |
| 2026-05-04 05:24 | 51.07843 | -114.56182 | 19493 ft | 296 kts | 261° |
| 2026-05-04 05:24 | 51.07295 | -114.59360 | 20067 ft | 299 kts | 261° |
| 2026-05-04 05:24 | 51.06758 | -114.62578 | 20634 ft | 302 kts | 261° |
| 2026-05-04 05:24 | 51.06239 | -114.65815 | 21193 ft | 304 kts | 262° |
| 2026-05-04 05:25 | 51.05724 | -114.69089 | 21750 ft | 307 kts | 262° |
| 2026-05-04 05:25 | 51.05215 | -114.72356 | 22246 ft | 310 kts | 262° |
| 2026-05-04 05:25 | 51.04694 | -114.75692 | 22762 ft | 312 kts | 262° |
| 2026-05-04 05:25 | 51.04167 | -114.79045 | 23259 ft | 315 kts | 262° |
| 2026-05-04 05:26 | 51.03628 | -114.82439 | 23720 ft | 318 kts | 262° |
| 2026-05-04 05:26 | 51.03081 | -114.85853 | 24117 ft | 321 kts | 262° |
| 2026-05-04 05:26 | 51.02526 | -114.89293 | 24463 ft | 325 kts | 262° |
| 2026-05-04 05:26 | 51.01958 | -114.92804 | 24809 ft | 327 kts | 262° |
| 2026-05-04 05:27 | 51.01390 | -114.96303 | 25197 ft | 329 kts | 262° |
| 2026-05-04 05:28 | 50.99082 | -115.10471 | 26577 ft | 339 kts | 262° |